Time;durP1;ratioP1;P1;durP2;ratioP2;P2;SDS_P1;SDS_P2;PMS_P1;PMS_P2;Temp;Humidity;BMP_temperature;BMP_pressure;BME280_temperature;BME280_humidity;BME280_pressure;Samples;Min_cycle;Max_cycle;Signal;HPM_P1;HPM_P2
2022/04/26 03:40:58;;;;;;;19.52;8.23;;;;;;;;;;10402605;28;20171;-73
2022/04/26 03:46:02;;;;;;;9.43;5.38;;;;;;;;;;10416731;28;20084;-75
2022/04/26 03:51:05;;;;;;;9.80;4.75;;;;;;;;;;10400826;28;20117;-74
2022/04/26 03:56:08;;;;;;;21.03;9.17;;;;;;;;;;10412665;28;20030;-71
2022/04/26 04:01:12;;;;;;;16.67;6.78;;;;;;;;;;10397737;28;20426;-74
2022/04/26 04:06:16;;;;;;;7.90;3.60;;;;;;;;;;10407734;28;20050;-74
2022/04/26 04:11:19;;;;;;;18.07;8.83;;;;;;;;;;10422194;28;20513;-73
2022/04/26 04:16:23;;;;;;;21.27;9.90;;;;;;;;;;10413832;28;20036;-73
2022/04/26 04:21:27;;;;;;;18.08;8.02;;;;;;;;;;10410026;28;20049;-73
2022/04/26 04:26:30;;;;;;;22.60;10.23;;;;;;;;;;10418898;28;20463;-75
2022/04/26 04:31:34;;;;;;;12.82;5.32;;;;;;;;;;10402163;28;20041;-73
2022/04/26 04:36:38;;;;;;;20.05;8.80;;;;;;;;;;10400703;28;20042;-74
2022/04/26 04:41:40;;;;;;;17.73;8.38;;;;;;;;;;10394353;28;20057;-74
2022/04/26 04:46:45;;;;;;;22.10;9.45;;;;;;;;;;10410275;28;20501;-73
2022/04/26 04:51:48;;;;;;;17.80;8.23;;;;;;;;;;10404866;28;20040;-74
2022/04/26 04:56:51;;;;;;;16.90;8.60;;;;;;;;;;10410717;28;20038;-73
2022/04/26 05:01:58;;;;;;;18.45;8.68;;;;;;;;;;10411647;28;20099;-73
2022/04/26 05:07:01;;;;;;;17.23;8.02;;;;;;;;;;10398428;28;20112;-71
2022/04/26 05:12:04;;;;;;;17.45;8.00;;;;;;;;;;10394384;28;20041;-74
2022/04/26 05:17:11;;;;;;;17.70;7.93;;;;;;;;;;10407756;28;20492;-74
2022/04/26 05:22:15;;;;;;;15.88;7.03;;;;;;;;;;10383424;28;20042;-74
2022/04/26 05:27:18;;;;;;;16.67;7.17;;;;;;;;;;10390276;28;20103;-74
2022/04/26 05:32:23;;;;;;;18.20;8.13;;;;;;;;;;10378685;28;20041;-73
2022/04/26 05:37:27;;;;;;;17.25;7.30;;;;;;;;;;10397128;28;20477;-71
2022/04/26 05:42:30;;;;;;;16.13;7.30;;;;;;;;;;10383788;28;20467;-74
2022/04/26 05:47:35;;;;;;;19.15;7.65;;;;;;;;;;10392222;28;20045;-74
2022/04/26 05:52:38;;;;;;;17.52;8.88;;;;;;;;;;10392555;28;20070;-74
2022/04/26 05:57:42;;;;;;;17.60;8.77;;;;;;;;;;10385765;28;20061;-72
2022/04/26 06:02:47;;;;;;;16.13;8.05;;;;;;;;;;10397009;28;20049;-74
2022/04/26 06:07:55;;;;;;;16.63;7.90;;;;;;;;;;10412692;28;20047;-74
2022/04/26 06:12:57;;;;;;;15.13;7.40;;;;;;;;;;10396938;28;20076;-74
2022/04/26 06:18:02;;;;;;;14.70;7.95;;;;;;;;;;10404999;28;20033;-73
2022/04/26 06:23:05;;;;;;;15.80;7.63;;;;;;;;;;10409555;28;20045;-73
2022/04/26 06:28:09;;;;;;;12.27;6.00;;;;;;;;;;10384516;28;20129;-75
2022/04/26 06:33:13;;;;;;;10.75;5.57;;;;;;;;;;10395863;28;20300;-73
2022/04/26 06:38:22;;;;;;;9.85;4.72;;;;;;;;;;10395427;28;20052;-73
2022/04/26 06:43:25;;;;;;;10.25;5.18;;;;;;;;;;10386314;28;20516;-73
2022/04/26 06:48:30;;;;;;;10.55;5.80;;;;;;;;;;10387665;28;20394;-72
2022/04/26 06:53:34;;;;;;;9.60;4.63;;;;;;;;;;10404672;28;20045;-73
2022/04/26 06:58:41;;;;;;;8.18;4.28;;;;;;;;;;10389899;28;20038;-74
2022/04/26 07:03:46;;;;;;;12.80;4.70;;;;;;;;;;10418344;28;20108;-74
2022/04/26 07:08:49;;;;;;;9.25;4.43;;;;;;;;;;10392377;28;20436;-75
2022/04/26 07:13:52;;;;;;;7.90;4.73;;;;;;;;;;10387180;28;20119;-74
2022/04/26 07:18:56;;;;;;;;;;;;;;;;;;10397881;28;20175;-75
2022/04/26 07:24:00;;;;;;;8.67;4.43;;;;;;;;;;10396937;28;20016;-75
2022/04/26 07:29:03;;;;;;;5.18;3.45;;;;;;;;;;10382962;28;20080;-76
2022/04/26 07:34:21;;;;;;;6.65;4.50;;;;;;;;;;10405091;28;20144;-73
2022/04/26 07:39:26;;;;;;;6.38;3.28;;;;;;;;;;10395005;28;20050;-75
2022/04/26 07:44:28;;;;;;;4.63;2.92;;;;;;;;;;10417648;28;20045;-75
2022/04/26 07:49:31;;;;;;;5.40;3.13;;;;;;;;;;10400720;28;20512;-75
2022/04/26 07:54:36;;;;;;;6.97;4.15;;;;;;;;;;10384756;28;20050;-74
2022/04/26 07:59:39;;;;;;;6.43;3.22;;;;;;;;;;10424255;28;20119;-75
2022/04/26 08:04:42;;;;;;;5.22;3.33;;;;;;;;;;10389298;28;20048;-72
2022/04/26 08:09:46;;;;;;;6.82;3.95;;;;;;;;;;10393949;28;20046;-75
2022/04/26 08:14:49;;;;;;;6.70;3.60;;;;;;;;;;10406040;28;20044;-73
2022/04/26 08:19:52;;;;;;;5.25;3.03;;;;;;;;;;10396001;28;20060;-75
2022/04/26 08:30:17;;;;;;;5.20;3.17;;;;;;;;;;10396587;28;20056;-74
2022/04/26 08:35:21;;;;;;;5.22;2.65;;;;;;;;;;10392779;28;20044;-71
2022/04/26 08:40:41;;;;;;;4.28;2.70;;;;;;;;;;10405902;28;20381;-74
2022/04/26 08:45:46;;;;;;;5.78;2.97;;;;;;;;;;10412557;28;20202;-73
2022/04/26 08:51:03;;;;;;;4.68;2.70;;;;;;;;;;10408958;28;20462;-75
2022/04/26 08:56:07;;;;;;;3.28;2.17;;;;;;;;;;10405886;28;20445;-74
2022/04/26 09:01:11;;;;;;;4.22;2.67;;;;;;;;;;10397168;28;20069;-74
2022/04/26 09:06:15;;;;;;;4.03;2.10;;;;;;;;;;10400128;28;20046;-73
2022/04/26 09:11:24;;;;;;;3.90;2.25;;;;;;;;;;10388634;28;20046;-76
2022/04/26 09:16:27;;;;;;;3.67;2.33;;;;;;;;;;10410925;28;20473;-75
2022/04/26 09:21:30;;;;;;;3.60;2.13;;;;;;;;;;10408695;28;20025;-76
2022/04/26 09:26:36;;;;;;;4.22;2.42;;;;;;;;;;10404843;28;20083;-75
2022/04/26 09:31:43;;;;;;;5.43;2.65;;;;;;;;;;10408723;28;20517;-75
2022/04/26 09:36:46;;;;;;;3.97;2.40;;;;;;;;;;10400721;28;20048;-72
2022/04/26 09:41:51;;;;;;;7.30;2.65;;;;;;;;;;10401399;28;20129;-75
2022/04/26 09:46:54;;;;;;;4.00;2.17;;;;;;;;;;10400630;28;20238;-75
2022/04/26 09:51:59;;;;;;;5.37;2.63;;;;;;;;;;10389759;28;20593;-76
2022/04/26 09:57:05;;;;;;;4.70;2.83;;;;;;;;;;10389899;28;20050;-73
2022/04/26 10:02:30;;;;;;;5.22;2.92;;;;;;;;;;10410164;28;20148;-75
2022/04/26 10:07:36;;;;;;;7.88;3.35;;;;;;;;;;10392472;28;20040;-76
2022/04/26 10:12:42;;;;;;;7.18;3.00;;;;;;;;;;10398069;28;20048;-74
2022/04/26 10:17:48;;;;;;;7.97;3.80;;;;;;;;;;10384089;28;20041;-75
2022/04/26 10:22:58;;;;;;;6.03;3.00;;;;;;;;;;10399401;28;20030;-75
2022/04/26 10:28:26;;;;;;;6.93;3.20;;;;;;;;;;10393576;28;20437;-76
2022/04/26 10:33:40;;;;;;;4.45;2.63;;;;;;;;;;10378430;28;20127;-74
2022/04/26 10:38:43;;;;;;;;;;;;;;;;;;10383808;28;20124;-75
2022/04/26 10:44:01;;;;;;;16.38;9.30;;;;;;;;;;10381608;28;20474;-75
2022/04/26 10:49:30;;;;;;;4.60;2.15;;;;;;;;;;10382610;28;20038;-76
2022/04/26 10:54:51;;;;;;;3.20;2.10;;;;;;;;;;10389170;28;20033;-76
2022/04/26 10:59:56;;;;;;;4.93;2.25;;;;;;;;;;10381902;28;20112;-74
2022/04/26 11:05:01;;;;;;;5.18;2.50;;;;;;;;;;10385737;28;20045;-74
2022/04/26 11:10:06;;;;;;;5.05;2.78;;;;;;;;;;10385653;28;20137;-76
2022/04/26 11:15:10;;;;;;;2.40;1.65;;;;;;;;;;10385319;28;20040;-75
2022/04/26 11:20:17;;;;;;;6.13;2.80;;;;;;;;;;10388829;28;20030;-75
2022/04/26 11:30:42;;;;;;;3.25;1.88;;;;;;;;;;10389391;28;20034;-75
2022/04/26 11:35:51;;;;;;;4.05;2.15;;;;;;;;;;10390886;28;20048;-75
2022/04/26 11:40:59;;;;;;;4.95;1.80;;;;;;;;;;10386831;28;20037;-75
2022/04/26 11:46:02;;;;;;;3.15;1.63;;;;;;;;;;10385046;28;20041;-75
2022/04/26 11:51:08;;;;;;;4.43;2.08;;;;;;;;;;10389069;28;20060;-73
2022/04/26 11:56:15;;;;;;;3.28;1.60;;;;;;;;;;10387590;28;20049;-76
2022/04/26 12:01:20;;;;;;;2.65;1.67;;;;;;;;;;10391985;28;20050;-75
2022/04/26 12:06:28;;;;;;;2.50;1.55;;;;;;;;;;10389128;28;20148;-75
2022/04/26 12:11:32;;;;;;;2.05;1.20;;;;;;;;;;10381333;28;20053;-74
2022/04/26 12:16:37;;;;;;;4.35;2.10;;;;;;;;;;10395144;28;20144;-75
2022/04/26 12:21:39;;;;;;;;;;;;;;;;;;10402599;28;20091;-74
2022/04/26 12:26:54;;;;;;;5.05;2.00;;;;;;;;;;10393206;28;19976;-74
2022/04/26 12:31:58;;;;;;;2.42;1.25;;;;;;;;;;10393899;28;20044;-75
2022/04/26 12:37:03;;;;;;;4.07;2.20;;;;;;;;;;10385657;28;20095;-74
2022/04/26 12:42:08;;;;;;;2.55;1.42;;;;;;;;;;10383720;28;20026;-75
2022/04/26 12:52:33;;;;;;;2.85;1.73;;;;;;;;;;10367052;28;20057;-75
2022/04/26 12:57:47;;;;;;;3.22;1.02;;;;;;;;;;10384094;28;20175;-75
2022/04/26 13:02:52;;;;;;;3.20;1.85;;;;;;;;;;10388640;28;20521;-75
2022/04/26 13:07:56;;;;;;;2.20;1.35;;;;;;;;;;10394817;28;20059;-75
2022/04/26 13:13:01;;;;;;;3.65;1.83;;;;;;;;;;10409092;28;20128;-75
2022/04/26 13:18:04;;;;;;;2.50;1.20;;;;;;;;;;10405072;28;20048;-74
2022/04/26 13:23:07;;;;;;;4.18;1.50;;;;;;;;;;10409437;28;20069;-75
2022/04/26 13:28:11;;;;;;;1.02;0.93;;;;;;;;;;10404629;28;20037;-73
2022/04/26 13:33:14;;;;;;;1.38;1.27;;;;;;;;;;10411939;28;20087;-75
2022/04/26 13:38:21;;;;;;;3.15;1.42;;;;;;;;;;10402807;28;20498;-74
2022/04/26 13:43:25;;;;;;;2.40;1.50;;;;;;;;;;10391422;28;20037;-76
2022/04/26 13:48:49;;;;;;;2.35;1.73;;;;;;;;;;10391477;28;20030;-75
2022/04/26 13:53:52;;;;;;;2.67;1.70;;;;;;;;;;10398948;28;20034;-76
2022/04/26 13:58:56;;;;;;;;;;;;;;;;;;10397763;28;20045;-73
2022/04/26 14:04:00;;;;;;;2.92;1.40;;;;;;;;;;10411249;28;20431;-75
2022/04/26 14:09:03;;;;;;;2.33;1.20;;;;;;;;;;10411116;28;20041;-76
2022/04/26 14:24:59;;;;;;;2.03;1.10;;;;;;;;;;10403674;28;20057;-73
2022/04/26 14:30:03;;;;;;;2.80;1.33;;;;;;;;;;10405059;28;20464;-74
2022/04/26 14:35:28;;;;;;;2.78;1.10;;;;;;;;;;10419591;28;20048;-73
2022/04/26 14:40:32;;;;;;;2.25;1.35;;;;;;;;;;10408661;28;20052;-75
2022/04/26 14:45:45;;;;;;;4.20;1.75;;;;;;;;;;10391106;28;20083;-76
2022/04/26 14:50:50;;;;;;;3.20;1.17;;;;;;;;;;10409647;28;20044;-76
2022/04/26 14:55:53;;;;;;;3.17;1.63;;;;;;;;;;10407980;28;20037;-76
2022/04/26 15:00:56;;;;;;;2.00;1.27;;;;;;;;;;10403794;28;20184;-75
2022/04/26 15:06:00;;;;;;;2.55;1.85;;;;;;;;;;10408477;28;20076;-76
2022/04/26 15:11:03;;;;;;;4.32;2.38;;;;;;;;;;10395009;28;20037;-76
2022/04/26 15:21:43;;;;;;;4.20;1.83;;;;;;;;;;10267329;28;20338;-76
2022/04/26 15:26:46;;;;;;;4.28;2.50;;;;;;;;;;10365330;28;20053;-75
2022/04/26 15:31:50;;;;;;;5.53;2.20;;;;;;;;;;10389732;28;20025;-75
2022/04/26 15:36:54;;;;;;;4.82;2.65;;;;;;;;;;10400400;28;20041;-76
2022/04/26 15:41:59;;;;;;;5.82;2.63;;;;;;;;;;10398904;28;20061;-74
2022/04/26 15:47:03;;;;;;;1.88;1.58;;;;;;;;;;10412332;28;20048;-75
2022/04/26 15:52:08;;;;;;;7.80;2.28;;;;;;;;;;10401758;28;20042;-76
2022/04/26 15:57:11;;;;;;;4.10;2.08;;;;;;;;;;10397611;28;20065;-72
2022/04/26 16:02:16;;;;;;;3.75;2.05;;;;;;;;;;10401480;28;20069;-72
2022/04/26 16:07:22;;;;;;;5.03;2.78;;;;;;;;;;10409646;28;20902;-75
2022/04/26 16:23:07;;;;;;;9.20;4.80;;;;;;;;;;10415122;28;20543;-75
2022/04/26 16:28:10;;;;;;;7.82;2.90;;;;;;;;;;10400631;28;20076;-74
2022/04/26 16:33:15;;;;;;;5.93;3.05;;;;;;;;;;10397734;28;20045;-75
2022/04/26 16:38:19;;;;;;;5.72;2.90;;;;;;;;;;10391631;28;20045;-75
2022/04/26 16:43:22;;;;;;;4.55;2.75;;;;;;;;;;10382799;28;20041;-74
2022/04/26 16:48:25;;;;;;;14.80;6.45;;;;;;;;;;10380583;28;20048;-72
2022/04/26 16:53:30;;;;;;;4.18;2.38;;;;;;;;;;10400094;28;20072;-74
2022/04/26 16:58:33;;;;;;;3.83;2.08;;;;;;;;;;10402056;28;20049;-74
2022/04/26 17:03:36;;;;;;;5.00;2.80;;;;;;;;;;10422593;28;20049;-75
2022/04/26 17:08:41;;;;;;;3.53;1.70;;;;;;;;;;10401350;28;20040;-72
2022/04/26 17:13:45;;;;;;;5.68;3.42;;;;;;;;;;10398790;28;20452;-76
2022/04/26 17:18:49;;;;;;;3.60;1.60;;;;;;;;;;10397476;28;20072;-75
2022/04/26 17:23:53;;;;;;;1.30;1.20;;;;;;;;;;10416644;28;20033;-74
2022/04/26 17:28:59;;;;;;;2.72;1.70;;;;;;;;;;10390438;28;20171;-74
2022/04/26 17:34:02;;;;;;;12.65;3.85;;;;;;;;;;10388184;28;20043;-72
2022/04/26 17:39:07;;;;;;;2.60;1.40;;;;;;;;;;10408568;28;20481;-73
2022/04/26 17:44:10;;;;;;;3.45;1.90;;;;;;;;;;10412920;28;20045;-75
2022/04/26 17:49:13;;;;;;;2.72;1.92;;;;;;;;;;10396196;28;20451;-76
2022/04/26 17:59:38;;;;;;;2.97;1.73;;;;;;;;;;10398166;28;20087;-71
2022/04/26 18:04:42;;;;;;;5.28;2.25;;;;;;;;;;10407848;28;20345;-73
2022/04/26 18:09:46;;;;;;;4.40;2.30;;;;;;;;;;10395712;28;20052;-71
2022/04/26 18:14:50;;;;;;;6.70;2.58;;;;;;;;;;10398491;28;20040;-71
2022/04/26 18:19:54;;;;;;;2.90;2.08;;;;;;;;;;10396850;28;20046;-70
2022/04/26 18:24:58;;;;;;;2.67;1.40;;;;;;;;;;10403507;28;20489;-71
2022/04/26 18:30:01;;;;;;;7.22;3.10;;;;;;;;;;10385379;28;20037;-71
2022/04/26 18:35:05;;;;;;;5.90;3.30;;;;;;;;;;10401676;28;20100;-71
2022/04/26 18:40:12;;;;;;;5.47;2.67;;;;;;;;;;10395141;28;20037;-71
2022/04/26 18:45:17;;;;;;;6.45;2.55;;;;;;;;;;10405148;28;20142;-74
2022/04/26 18:50:20;;;;;;;5.07;2.65;;;;;;;;;;10401350;28;20065;-74
2022/04/26 18:55:24;;;;;;;2.83;1.85;;;;;;;;;;10411901;28;20034;-74
2022/04/26 19:00:29;;;;;;;6.65;3.10;;;;;;;;;;10394887;28;20481;-73
2022/04/26 19:05:32;;;;;;;5.88;3.03;;;;;;;;;;10388832;28;20065;-74
2022/04/26 19:15:59;;;;;;;10.05;3.88;;;;;;;;;;10399284;28;20065;-75
2022/04/26 19:21:04;;;;;;;7.25;3.35;;;;;;;;;;10399149;28;20037;-75
2022/04/26 19:26:08;;;;;;;5.90;2.83;;;;;;;;;;10396976;28;20124;-74
2022/04/26 19:31:11;;;;;;;5.57;3.22;;;;;;;;;;10389687;28;20032;-71
2022/04/26 19:36:14;;;;;;;15.93;6.72;;;;;;;;;;10390627;28;20111;-74
2022/04/26 19:41:19;;;;;;;3.78;1.73;;;;;;;;;;10387929;28;20144;-75
2022/04/26 19:46:22;;;;;;;4.00;1.75;;;;;;;;;;10396218;28;20196;-74
2022/04/26 19:51:29;;;;;;;4.13;2.22;;;;;;;;;;10403230;28;20037;-71
2022/04/26 19:56:35;;;;;;;4.35;1.80;;;;;;;;;;10386035;28;20041;-74
2022/04/26 20:01:39;;;;;;;8.40;3.50;;;;;;;;;;10387088;28;20466;-74
2022/04/26 20:07:03;;;;;;;7.00;3.67;;;;;;;;;;10395273;28;20280;-72
2022/04/26 20:12:08;;;;;;;4.93;2.42;;;;;;;;;;10405370;28;20346;-75
2022/04/26 20:17:12;;;;;;;5.80;3.53;;;;;;;;;;10421000;28;20188;-74
2022/04/26 20:22:15;;;;;;;7.15;3.55;;;;;;;;;;10411509;28;20175;-74
2022/04/26 20:32:42;;;;;;;9.90;4.97;;;;;;;;;;10404344;28;20117;-74
2022/04/26 20:37:45;;;;;;;6.55;3.22;;;;;;;;;;10414348;28;20041;-74
2022/04/26 20:42:51;;;;;;;5.80;3.28;;;;;;;;;;10407101;28;20055;-74
2022/04/26 20:47:54;;;;;;;7.45;3.55;;;;;;;;;;10411616;28;20041;-74
2022/04/26 20:52:57;;;;;;;7.70;3.80;;;;;;;;;;10412384;28;20037;-75
2022/04/26 20:58:02;;;;;;;7.93;4.10;;;;;;;;;;10411703;28;20064;-74
2022/04/26 21:03:05;;;;;;;8.75;2.80;;;;;;;;;;10413143;28;20120;-75
2022/04/26 21:08:09;;;;;;;11.18;4.25;;;;;;;;;;10404497;28;20037;-75
2022/04/26 21:13:26;;;;;;;9.27;4.22;;;;;;;;;;10403179;28;20484;-75
2022/04/26 21:18:29;;;;;;;7.22;3.53;;;;;;;;;;10404935;28;20129;-76
2022/04/26 21:23:32;;;;;;;13.52;5.35;;;;;;;;;;10399799;28;20119;-74
2022/04/26 21:28:36;;;;;;;8.10;3.75;;;;;;;;;;10386117;28;20038;-74
2022/04/26 21:33:41;;;;;;;7.82;2.88;;;;;;;;;;10427103;28;20086;-74
2022/04/26 21:38:44;;;;;;;12.02;4.72;;;;;;;;;;10411758;28;20396;-76
2022/04/26 21:43:48;;;;;;;5.97;2.37;;;;;;;;;;10422680;28;20041;-74
2022/04/26 21:48:51;;;;;;;9.38;4.50;;;;;;;;;;10411761;28;20038;-76
2022/04/26 21:53:54;;;;;;;7.88;3.42;;;;;;;;;;10412526;28;20099;-76
2022/04/26 21:58:59;;;;;;;9.63;4.10;;;;;;;;;;10407631;28;20038;-76
2022/04/26 22:04:01;;;;;;;;;;;;;;;;;;10406301;28;20064;-74
2022/04/26 22:09:04;;;;;;;10.07;4.30;;;;;;;;;;10403305;28;19920;-75
2022/04/26 22:14:09;;;;;;;9.98;4.15;;;;;;;;;;10398033;28;20068;-74
2022/04/26 22:19:12;;;;;;;7.20;3.88;;;;;;;;;;10399383;28;20062;-74
2022/04/26 22:24:16;;;;;;;8.82;4.35;;;;;;;;;;10393834;28;20045;-75
2022/04/26 22:29:20;;;;;;;4.57;2.20;;;;;;;;;;10393574;28;20080;-76
2022/04/26 22:34:23;;;;;;;10.30;4.70;;;;;;;;;;10403044;28;20372;-77
2022/04/26 22:39:26;;;;;;;5.53;2.78;;;;;;;;;;10404077;28;20651;-75
2022/04/26 22:44:30;;;;;;;5.22;2.83;;;;;;;;;;10399220;28;20548;-75
2022/04/26 22:49:34;;;;;;;12.13;3.88;;;;;;;;;;10400674;28;20069;-77
2022/04/26 22:54:37;;;;;;;7.35;3.58;;;;;;;;;;10394043;28;20031;-74
2022/04/26 22:59:41;;;;;;;8.63;4.10;;;;;;;;;;10413609;28;20041;-75
2022/04/26 23:04:44;;;;;;;7.50;3.70;;;;;;;;;;10416844;28;20271;-75
2022/04/26 23:09:47;;;;;;;6.25;2.75;;;;;;;;;;10410601;28;20061;-74
2022/04/26 23:14:51;;;;;;;6.35;2.60;;;;;;;;;;10409160;28;20061;-73
2022/04/26 23:19:54;;;;;;;5.32;2.10;;;;;;;;;;10404920;28;20087;-74
2022/04/26 23:24:57;;;;;;;5.25;2.30;;;;;;;;;;10422459;28;20128;-75
2022/04/26 23:30:01;;;;;;;6.93;3.07;;;;;;;;;;10401322;28;20377;-74
2022/04/26 23:40:25;;;;;;;2.15;1.33;;;;;;;;;;10407767;28;20136;-72
2022/04/26 23:45:30;;;;;;;6.43;3.33;;;;;;;;;;10400416;28;20108;-74
2022/04/26 23:55:53;;;;;;;7.20;3.50;;;;;;;;;;10399292;28;20031;-75
